sensor_id;sensor_type;location;lat;lon;timestamp;P1;durP1;ratioP1;P2;durP2;ratioP2
22468;SDS011;11401;50.792;4.352;2023-02-11T00:00:42;10.73;;;6.75;;
22468;SDS011;11401;50.792;4.352;2023-02-11T00:03:09;10.73;;;5.90;;
22468;SDS011;11401;50.792;4.352;2023-02-11T00:05:36;8.75;;;5.82;;
22468;SDS011;11401;50.792;4.352;2023-02-11T00:08:03;8.15;;;6.40;;
22468;SDS011;11401;50.792;4.352;2023-02-11T00:10:30;12.10;;;6.18;;
22468;SDS011;11401;50.792;4.352;2023-02-11T00:12:57;8.80;;;5.07;;
22468;SDS011;11401;50.792;4.352;2023-02-11T00:15:24;10.20;;;5.43;;
22468;SDS011;11401;50.792;4.352;2023-02-11T00:17:51;9.70;;;5.82;;
22468;SDS011;11401;50.792;4.352;2023-02-11T00:20:18;12.15;;;6.10;;
22468;SDS011;11401;50.792;4.352;2023-02-11T00:22:46;10.00;;;6.22;;
22468;SDS011;11401;50.792;4.352;2023-02-11T00:25:13;8.57;;;5.90;;
22468;SDS011;11401;50.792;4.352;2023-02-11T00:27:40;8.40;;;5.82;;
22468;SDS011;11401;50.792;4.352;2023-02-11T00:30:07;13.32;;;6.30;;
22468;SDS011;11401;50.792;4.352;2023-02-11T00:32:36;10.43;;;5.82;;
22468;SDS011;11401;50.792;4.352;2023-02-11T00:35:04;9.60;;;5.20;;
22468;SDS011;11401;50.792;4.352;2023-02-11T00:37:31;14.68;;;6.20;;
22468;SDS011;11401;50.792;4.352;2023-02-11T00:40:02;9.07;;;4.95;;
22468;SDS011;11401;50.792;4.352;2023-02-11T00:42:32;13.77;;;5.82;;
22468;SDS011;11401;50.792;4.352;2023-02-11T00:45:01;16.58;;;5.63;;
22468;SDS011;11401;50.792;4.352;2023-02-11T00:47:28;9.23;;;5.78;;
22468;SDS011;11401;50.792;4.352;2023-02-11T00:49:55;8.60;;;4.75;;
22468;SDS011;11401;50.792;4.352;2023-02-11T00:52:25;8.60;;;5.32;;
22468;SDS011;11401;50.792;4.352;2023-02-11T00:54:53;10.05;;;5.32;;
22468;SDS011;11401;50.792;4.352;2023-02-11T00:57:20;9.27;;;5.50;;
22468;SDS011;11401;50.792;4.352;2023-02-11T00:59:48;15.05;;;5.50;;
22468;SDS011;11401;50.792;4.352;2023-02-11T01:02:17;5.32;;;4.60;;
22468;SDS011;11401;50.792;4.352;2023-02-11T01:04:44;10.00;;;5.10;;
22468;SDS011;11401;50.792;4.352;2023-02-11T01:07:11;12.30;;;5.30;;
22468;SDS011;11401;50.792;4.352;2023-02-11T01:09:38;7.47;;;5.13;;
22468;SDS011;11401;50.792;4.352;2023-02-11T01:12:05;5.00;;;4.43;;
22468;SDS011;11401;50.792;4.352;2023-02-11T01:14:33;10.85;;;5.47;;
22468;SDS011;11401;50.792;4.352;2023-02-11T01:17:00;11.10;;;5.15;;
22468;SDS011;11401;50.792;4.352;2023-02-11T01:19:27;6.93;;;4.95;;
22468;SDS011;11401;50.792;4.352;2023-02-11T01:21:54;10.00;;;5.88;;
22468;SDS011;11401;50.792;4.352;2023-02-11T01:24:21;8.93;;;4.40;;
22468;SDS011;11401;50.792;4.352;2023-02-11T01:26:48;13.20;;;5.95;;
22468;SDS011;11401;50.792;4.352;2023-02-11T01:29:15;6.32;;;4.80;;
22468;SDS011;11401;50.792;4.352;2023-02-11T01:31:42;9.00;;;4.88;;
22468;SDS011;11401;50.792;4.352;2023-02-11T01:34:09;11.05;;;4.75;;
22468;SDS011;11401;50.792;4.352;2023-02-11T01:36:36;10.15;;;5.10;;
22468;SDS011;11401;50.792;4.352;2023-02-11T01:39:03;8.70;;;4.57;;
22468;SDS011;11401;50.792;4.352;2023-02-11T01:41:30;8.63;;;4.13;;
22468;SDS011;11401;50.792;4.352;2023-02-11T01:43:58;12.57;;;5.30;;
22468;SDS011;11401;50.792;4.352;2023-02-11T01:46:44;5.68;;;4.50;;
22468;SDS011;11401;50.792;4.352;2023-02-11T01:49:14;9.32;;;4.57;;
22468;SDS011;11401;50.792;4.352;2023-02-11T01:51:45;6.38;;;5.07;;
22468;SDS011;11401;50.792;4.352;2023-02-11T01:54:18;10.00;;;4.78;;
22468;SDS011;11401;50.792;4.352;2023-02-11T01:57:07;16.58;;;4.90;;
22468;SDS011;11401;50.792;4.352;2023-02-11T02:03:00;14.23;;;5.25;;
22468;SDS011;11401;50.792;4.352;2023-02-11T02:10:52;8.55;;;4.28;;
22468;SDS011;11401;50.792;4.352;2023-02-11T02:13:22;8.68;;;4.47;;
22468;SDS011;11401;50.792;4.352;2023-02-11T02:15:54;7.75;;;5.03;;
22468;SDS011;11401;50.792;4.352;2023-02-11T02:24:04;5.47;;;4.13;;
22468;SDS011;11401;50.792;4.352;2023-02-11T02:30:07;8.18;;;4.22;;
22468;SDS011;11401;50.792;4.352;2023-02-11T02:38:38;11.27;;;5.10;;
22468;SDS011;11401;50.792;4.352;2023-02-11T02:41:18;8.70;;;4.80;;
22468;SDS011;11401;50.792;4.352;2023-02-11T02:43:48;7.55;;;4.22;;
22468;SDS011;11401;50.792;4.352;2023-02-11T02:46:24;11.00;;;4.53;;
22468;SDS011;11401;50.792;4.352;2023-02-11T02:48:52;5.60;;;4.03;;
22468;SDS011;11401;50.792;4.352;2023-02-11T02:51:24;9.07;;;4.20;;
22468;SDS011;11401;50.792;4.352;2023-02-11T02:54:11;10.60;;;4.00;;
22468;SDS011;11401;50.792;4.352;2023-02-11T03:10:32;8.35;;;4.47;;
22468;SDS011;11401;50.792;4.352;2023-02-11T03:13:02;9.27;;;5.32;;
22468;SDS011;11401;50.792;4.352;2023-02-11T03:15:33;9.15;;;4.20;;
22468;SDS011;11401;50.792;4.352;2023-02-11T03:18:04;9.65;;;3.78;;
22468;SDS011;11401;50.792;4.352;2023-02-11T03:20:35;15.88;;;4.63;;
22468;SDS011;11401;50.792;4.352;2023-02-11T03:23:08;9.40;;;4.30;;
22468;SDS011;11401;50.792;4.352;2023-02-11T03:25:49;8.57;;;4.65;;
22468;SDS011;11401;50.792;4.352;2023-02-11T03:28:41;8.85;;;4.28;;
22468;SDS011;11401;50.792;4.352;2023-02-11T03:36:50;6.90;;;4.47;;
22468;SDS011;11401;50.792;4.352;2023-02-11T03:39:45;5.93;;;3.50;;
22468;SDS011;11401;50.792;4.352;2023-02-11T03:42:19;6.03;;;3.65;;
22468;SDS011;11401;50.792;4.352;2023-02-11T03:44:52;10.23;;;5.07;;
22468;SDS011;11401;50.792;4.352;2023-02-11T03:47:25;7.57;;;5.07;;
22468;SDS011;11401;50.792;4.352;2023-02-11T03:49:54;9.27;;;4.45;;
22468;SDS011;11401;50.792;4.352;2023-02-11T03:52:25;10.52;;;4.35;;
22468;SDS011;11401;50.792;4.352;2023-02-11T03:54:54;12.68;;;5.03;;
22468;SDS011;11401;50.792;4.352;2023-02-11T03:57:23;9.25;;;4.68;;
22468;SDS011;11401;50.792;4.352;2023-02-11T03:59:54;6.38;;;3.83;;
22468;SDS011;11401;50.792;4.352;2023-02-11T04:02:23;9.02;;;4.75;;
22468;SDS011;11401;50.792;4.352;2023-02-11T04:04:53;5.28;;;4.18;;
22468;SDS011;11401;50.792;4.352;2023-02-11T04:07:21;12.00;;;4.93;;
22468;SDS011;11401;50.792;4.352;2023-02-11T04:09:48;9.85;;;4.93;;
22468;SDS011;11401;50.792;4.352;2023-02-11T04:12:15;7.10;;;4.65;;
22468;SDS011;11401;50.792;4.352;2023-02-11T04:14:42;5.85;;;4.55;;
22468;SDS011;11401;50.792;4.352;2023-02-11T04:17:10;7.55;;;4.88;;
22468;SDS011;11401;50.792;4.352;2023-02-11T04:19:37;5.72;;;4.78;;
22468;SDS011;11401;50.792;4.352;2023-02-11T04:22:05;10.90;;;5.18;;
22468;SDS011;11401;50.792;4.352;2023-02-11T04:24:32;8.73;;;4.45;;
22468;SDS011;11401;50.792;4.352;2023-02-11T04:26:59;6.75;;;4.45;;
22468;SDS011;11401;50.792;4.352;2023-02-11T04:29:26;9.23;;;4.57;;
22468;SDS011;11401;50.792;4.352;2023-02-11T04:31:53;5.55;;;4.65;;
22468;SDS011;11401;50.792;4.352;2023-02-11T04:34:21;9.15;;;4.47;;
22468;SDS011;11401;50.792;4.352;2023-02-11T04:36:49;12.15;;;5.43;;
22468;SDS011;11401;50.792;4.352;2023-02-11T04:39:16;9.10;;;4.13;;
22468;SDS011;11401;50.792;4.352;2023-02-11T04:41:44;7.70;;;4.88;;
22468;SDS011;11401;50.792;4.352;2023-02-11T04:44:11;13.07;;;5.20;;
22468;SDS011;11401;50.792;4.352;2023-02-11T04:46:38;9.85;;;4.15;;
22468;SDS011;11401;50.792;4.352;2023-02-11T04:49:05;12.43;;;5.38;;
22468;SDS011;11401;50.792;4.352;2023-02-11T04:51:32;8.00;;;4.47;;
22468;SDS011;11401;50.792;4.352;2023-02-11T04:53:59;7.18;;;4.95;;
22468;SDS011;11401;50.792;4.352;2023-02-11T04:56:26;11.25;;;5.70;;
22468;SDS011;11401;50.792;4.352;2023-02-11T04:58:53;12.18;;;4.82;;
22468;SDS011;11401;50.792;4.352;2023-02-11T05:01:20;8.45;;;4.80;;
22468;SDS011;11401;50.792;4.352;2023-02-11T05:03:47;8.73;;;4.75;;
22468;SDS011;11401;50.792;4.352;2023-02-11T05:06:15;8.77;;;4.70;;
22468;SDS011;11401;50.792;4.352;2023-02-11T05:08:42;15.35;;;5.40;;
22468;SDS011;11401;50.792;4.352;2023-02-11T05:11:14;10.40;;;5.30;;
22468;SDS011;11401;50.792;4.352;2023-02-11T05:13:42;10.30;;;5.25;;
22468;SDS011;11401;50.792;4.352;2023-02-11T05:16:10;10.85;;;6.20;;
22468;SDS011;11401;50.792;4.352;2023-02-11T05:18:39;8.65;;;5.22;;
22468;SDS011;11401;50.792;4.352;2023-02-11T05:21:07;12.68;;;4.97;;
22468;SDS011;11401;50.792;4.352;2023-02-11T05:23:36;14.35;;;6.13;;
22468;SDS011;11401;50.792;4.352;2023-02-11T05:26:04;9.70;;;6.18;;
22468;SDS011;11401;50.792;4.352;2023-02-11T05:28:32;11.80;;;6.03;;
22468;SDS011;11401;50.792;4.352;2023-02-11T05:31:00;8.10;;;5.13;;
22468;SDS011;11401;50.792;4.352;2023-02-11T05:33:27;8.80;;;5.07;;
22468;SDS011;11401;50.792;4.352;2023-02-11T05:35:58;10.00;;;5.45;;
22468;SDS011;11401;50.792;4.352;2023-02-11T05:38:26;10.38;;;5.28;;
22468;SDS011;11401;50.792;4.352;2023-02-11T05:40:53;9.52;;;5.93;;
22468;SDS011;11401;50.792;4.352;2023-02-11T05:43:20;11.90;;;5.22;;
22468;SDS011;11401;50.792;4.352;2023-02-11T05:45:47;9.98;;;5.13;;
22468;SDS011;11401;50.792;4.352;2023-02-11T05:48:15;11.65;;;5.63;;
22468;SDS011;11401;50.792;4.352;2023-02-11T05:50:43;7.72;;;5.53;;
22468;SDS011;11401;50.792;4.352;2023-02-11T05:53:10;15.00;;;6.60;;
22468;SDS011;11401;50.792;4.352;2023-02-11T05:55:38;11.57;;;5.78;;
22468;SDS011;11401;50.792;4.352;2023-02-11T05:58:05;14.38;;;6.00;;
22468;SDS011;11401;50.792;4.352;2023-02-11T06:00:33;15.70;;;6.75;;
22468;SDS011;11401;50.792;4.352;2023-02-11T06:03:01;11.00;;;6.90;;
22468;SDS011;11401;50.792;4.352;2023-02-11T06:05:29;8.57;;;6.07;;
22468;SDS011;11401;50.792;4.352;2023-02-11T06:07:57;12.73;;;6.95;;
22468;SDS011;11401;50.792;4.352;2023-02-11T06:10:24;14.77;;;8.23;;
22468;SDS011;11401;50.792;4.352;2023-02-11T06:12:52;13.60;;;7.85;;
22468;SDS011;11401;50.792;4.352;2023-02-11T06:15:19;14.25;;;7.95;;
22468;SDS011;11401;50.792;4.352;2023-02-11T06:17:46;14.00;;;8.02;;
22468;SDS011;11401;50.792;4.352;2023-02-11T06:20:13;13.38;;;5.82;;
22468;SDS011;11401;50.792;4.352;2023-02-11T06:22:40;12.65;;;7.07;;
22468;SDS011;11401;50.792;4.352;2023-02-11T06:25:07;15.40;;;7.20;;
22468;SDS011;11401;50.792;4.352;2023-02-11T06:27:36;14.40;;;7.18;;
22468;SDS011;11401;50.792;4.352;2023-02-11T06:30:04;15.05;;;7.15;;
22468;SDS011;11401;50.792;4.352;2023-02-11T06:32:32;21.17;;;8.55;;
22468;SDS011;11401;50.792;4.352;2023-02-11T06:35:15;10.85;;;6.28;;
22468;SDS011;11401;50.792;4.352;2023-02-11T06:37:42;14.20;;;7.88;;
22468;SDS011;11401;50.792;4.352;2023-02-11T06:40:09;15.63;;;7.68;;
22468;SDS011;11401;50.792;4.352;2023-02-11T06:42:37;14.23;;;7.32;;
22468;SDS011;11401;50.792;4.352;2023-02-11T06:45:05;17.23;;;7.30;;
22468;SDS011;11401;50.792;4.352;2023-02-11T06:47:34;13.10;;;7.90;;
22468;SDS011;11401;50.792;4.352;2023-02-11T06:50:02;14.90;;;8.25;;
22468;SDS011;11401;50.792;4.352;2023-02-11T06:52:29;15.30;;;7.50;;
22468;SDS011;11401;50.792;4.352;2023-02-11T06:54:56;13.50;;;7.63;;
22468;SDS011;11401;50.792;4.352;2023-02-11T06:57:23;19.83;;;8.85;;
22468;SDS011;11401;50.792;4.352;2023-02-11T06:59:50;10.30;;;6.85;;
22468;SDS011;11401;50.792;4.352;2023-02-11T07:02:17;16.77;;;7.78;;
22468;SDS011;11401;50.792;4.352;2023-02-11T07:04:46;16.48;;;7.68;;
22468;SDS011;11401;50.792;4.352;2023-02-11T07:07:13;11.43;;;7.78;;
22468;SDS011;11401;50.792;4.352;2023-02-11T07:09:40;13.35;;;8.07;;
22468;SDS011;11401;50.792;4.352;2023-02-11T07:12:08;12.10;;;8.90;;
22468;SDS011;11401;50.792;4.352;2023-02-11T07:14:35;16.92;;;7.35;;
22468;SDS011;11401;50.792;4.352;2023-02-11T07:17:03;10.88;;;7.20;;
22468;SDS011;11401;50.792;4.352;2023-02-11T07:19:30;20.27;;;8.30;;
22468;SDS011;11401;50.792;4.352;2023-02-11T07:21:57;17.83;;;8.57;;
22468;SDS011;11401;50.792;4.352;2023-02-11T07:24:24;14.77;;;9.23;;
22468;SDS011;11401;50.792;4.352;2023-02-11T07:26:52;18.70;;;9.15;;
22468;SDS011;11401;50.792;4.352;2023-02-11T07:29:19;17.08;;;8.63;;
22468;SDS011;11401;50.792;4.352;2023-02-11T07:31:46;12.73;;;8.82;;
22468;SDS011;11401;50.792;4.352;2023-02-11T07:34:13;14.80;;;10.20;;
22468;SDS011;11401;50.792;4.352;2023-02-11T07:36:40;15.02;;;8.05;;
22468;SDS011;11401;50.792;4.352;2023-02-11T07:39:09;18.33;;;8.07;;
22468;SDS011;11401;50.792;4.352;2023-02-11T07:41:36;14.10;;;9.05;;
22468;SDS011;11401;50.792;4.352;2023-02-11T07:44:04;20.80;;;10.07;;
22468;SDS011;11401;50.792;4.352;2023-02-11T07:46:31;8.90;;;5.25;;
22468;SDS011;11401;50.792;4.352;2023-02-11T07:49:00;9.85;;;5.70;;
22468;SDS011;11401;50.792;4.352;2023-02-11T07:51:27;20.13;;;10.63;;
22468;SDS011;11401;50.792;4.352;2023-02-11T07:53:56;18.83;;;10.40;;
22468;SDS011;11401;50.792;4.352;2023-02-11T07:56:25;20.23;;;9.57;;
22468;SDS011;11401;50.792;4.352;2023-02-11T07:58:53;23.23;;;11.13;;
22468;SDS011;11401;50.792;4.352;2023-02-11T08:01:23;20.48;;;11.57;;
22468;SDS011;11401;50.792;4.352;2023-02-11T08:03:54;25.23;;;12.20;;
22468;SDS011;11401;50.792;4.352;2023-02-11T08:06:23;22.08;;;11.88;;
22468;SDS011;11401;50.792;4.352;2023-02-11T08:08:52;20.10;;;11.30;;
22468;SDS011;11401;50.792;4.352;2023-02-11T08:11:20;24.52;;;11.20;;
22468;SDS011;11401;50.792;4.352;2023-02-11T08:13:49;23.35;;;11.25;;
22468;SDS011;11401;50.792;4.352;2023-02-11T08:18:43;22.67;;;10.85;;
22468;SDS011;11401;50.792;4.352;2023-02-11T08:21:10;18.65;;;10.70;;
22468;SDS011;11401;50.792;4.352;2023-02-11T08:23:38;24.55;;;10.45;;
22468;SDS011;11401;50.792;4.352;2023-02-11T08:26:07;23.85;;;12.55;;
22468;SDS011;11401;50.792;4.352;2023-02-11T08:28:40;26.65;;;13.52;;
22468;SDS011;11401;50.792;4.352;2023-02-11T08:31:18;21.08;;;11.85;;
22468;SDS011;11401;50.792;4.352;2023-02-11T08:33:47;27.58;;;12.88;;
22468;SDS011;11401;50.792;4.352;2023-02-11T08:36:16;22.65;;;11.02;;
22468;SDS011;11401;50.792;4.352;2023-02-11T08:38:45;29.05;;;13.18;;
22468;SDS011;11401;50.792;4.352;2023-02-11T08:41:12;20.50;;;12.10;;
22468;SDS011;11401;50.792;4.352;2023-02-11T08:43:40;23.75;;;12.48;;
22468;SDS011;11401;50.792;4.352;2023-02-11T08:46:09;31.13;;;12.48;;
22468;SDS011;11401;50.792;4.352;2023-02-11T09:01:11;29.90;;;14.93;;
22468;SDS011;11401;50.792;4.352;2023-02-11T09:03:39;30.75;;;14.70;;
22468;SDS011;11401;50.792;4.352;2023-02-11T09:06:06;23.70;;;14.55;;
22468;SDS011;11401;50.792;4.352;2023-02-11T09:08:35;23.25;;;13.85;;
22468;SDS011;11401;50.792;4.352;2023-02-11T09:11:04;28.23;;;15.93;;
22468;SDS011;11401;50.792;4.352;2023-02-11T09:13:31;32.20;;;16.15;;
22468;SDS011;11401;50.792;4.352;2023-02-11T09:15:59;21.90;;;12.38;;
22468;SDS011;11401;50.792;4.352;2023-02-11T09:18:28;25.50;;;13.35;;
22468;SDS011;11401;50.792;4.352;2023-02-11T09:21:05;28.50;;;14.35;;
22468;SDS011;11401;50.792;4.352;2023-02-11T09:23:34;36.80;;;15.88;;
22468;SDS011;11401;50.792;4.352;2023-02-11T09:26:05;31.15;;;13.88;;
22468;SDS011;11401;50.792;4.352;2023-02-11T09:28:42;31.77;;;14.27;;
22468;SDS011;11401;50.792;4.352;2023-02-11T09:31:10;35.45;;;15.32;;
22468;SDS011;11401;50.792;4.352;2023-02-11T09:33:40;29.80;;;15.25;;
22468;SDS011;11401;50.792;4.352;2023-02-11T09:36:14;30.33;;;14.48;;
22468;SDS011;11401;50.792;4.352;2023-02-11T09:38:46;35.72;;;16.27;;
22468;SDS011;11401;50.792;4.352;2023-02-11T09:43:57;27.17;;;14.20;;
22468;SDS011;11401;50.792;4.352;2023-02-11T09:46:35;34.72;;;15.55;;
22468;SDS011;11401;50.792;4.352;2023-02-11T09:49:06;29.27;;;15.90;;
22468;SDS011;11401;50.792;4.352;2023-02-11T09:51:53;38.22;;;15.40;;
22468;SDS011;11401;50.792;4.352;2023-02-11T09:57:28;31.27;;;15.57;;
22468;SDS011;11401;50.792;4.352;2023-02-11T10:00:06;25.38;;;14.25;;
22468;SDS011;11401;50.792;4.352;2023-02-11T10:02:54;33.88;;;16.85;;
22468;SDS011;11401;50.792;4.352;2023-02-11T10:05:42;27.05;;;14.55;;
22468;SDS011;11401;50.792;4.352;2023-02-11T10:08:29;31.02;;;14.65;;
22468;SDS011;11401;50.792;4.352;2023-02-11T10:14:05;30.48;;;15.40;;
22468;SDS011;11401;50.792;4.352;2023-02-11T10:16:55;30.65;;;15.30;;
22468;SDS011;11401;50.792;4.352;2023-02-11T10:22:10;42.85;;;16.73;;
22468;SDS011;11401;50.792;4.352;2023-02-11T10:24:50;43.35;;;17.85;;
22468;SDS011;11401;50.792;4.352;2023-02-11T10:27:21;45.13;;;20.38;;
22468;SDS011;11401;50.792;4.352;2023-02-11T10:29:54;58.80;;;33.38;;
22468;SDS011;11401;50.792;4.352;2023-02-11T10:32:30;40.40;;;21.60;;
22468;SDS011;11401;50.792;4.352;2023-02-11T10:35:16;41.63;;;20.73;;
22468;SDS011;11401;50.792;4.352;2023-02-11T10:37:46;29.25;;;18.17;;
22468;SDS011;11401;50.792;4.352;2023-02-11T10:40:15;47.88;;;20.13;;
22468;SDS011;11401;50.792;4.352;2023-02-11T10:42:45;35.25;;;16.95;;
22468;SDS011;11401;50.792;4.352;2023-02-11T10:45:16;34.40;;;17.15;;
22468;SDS011;11401;50.792;4.352;2023-02-11T10:48:03;38.45;;;17.63;;
22468;SDS011;11401;50.792;4.352;2023-02-11T10:50:32;33.67;;;17.38;;
22468;SDS011;11401;50.792;4.352;2023-02-11T10:53:10;37.20;;;17.33;;
22468;SDS011;11401;50.792;4.352;2023-02-11T10:55:50;34.95;;;18.00;;
22468;SDS011;11401;50.792;4.352;2023-02-11T11:01:11;31.63;;;18.60;;
22468;SDS011;11401;50.792;4.352;2023-02-11T11:03:50;34.50;;;19.33;;
22468;SDS011;11401;50.792;4.352;2023-02-11T11:06:30;32.63;;;17.38;;
22468;SDS011;11401;50.792;4.352;2023-02-11T11:08:58;41.58;;;19.90;;
22468;SDS011;11401;50.792;4.352;2023-02-11T11:11:26;33.28;;;18.02;;
22468;SDS011;11401;50.792;4.352;2023-02-11T11:13:58;37.75;;;19.58;;
22468;SDS011;11401;50.792;4.352;2023-02-11T11:16:29;33.05;;;19.63;;
22468;SDS011;11401;50.792;4.352;2023-02-11T11:24:17;36.00;;;19.13;;
22468;SDS011;11401;50.792;4.352;2023-02-11T11:26:50;39.92;;;19.67;;
22468;SDS011;11401;50.792;4.352;2023-02-11T11:29:21;50.22;;;22.17;;
22468;SDS011;11401;50.792;4.352;2023-02-11T11:32:10;35.38;;;21.35;;
22468;SDS011;11401;50.792;4.352;2023-02-11T11:34:47;38.50;;;20.98;;
22468;SDS011;11401;50.792;4.352;2023-02-11T11:42:42;39.63;;;20.42;;
22468;SDS011;11401;50.792;4.352;2023-02-11T11:50:33;35.10;;;19.55;;
22468;SDS011;11401;50.792;4.352;2023-02-11T11:53:14;38.40;;;18.80;;
22468;SDS011;11401;50.792;4.352;2023-02-11T11:58:35;35.50;;;18.05;;
22468;SDS011;11401;50.792;4.352;2023-02-11T12:14:11;39.60;;;20.15;;
22468;SDS011;11401;50.792;4.352;2023-02-11T12:17:02;39.58;;;21.55;;
22468;SDS011;11401;50.792;4.352;2023-02-11T12:25:19;33.45;;;19.38;;
22468;SDS011;11401;50.792;4.352;2023-02-11T12:27:55;35.63;;;21.00;;
22468;SDS011;11401;50.792;4.352;2023-02-11T12:35:42;34.28;;;17.23;;
22468;SDS011;11401;50.792;4.352;2023-02-11T12:38:41;31.00;;;18.35;;
22468;SDS011;11401;50.792;4.352;2023-02-11T12:44:23;46.15;;;19.52;;
22468;SDS011;11401;50.792;4.352;2023-02-11T12:49:53;35.42;;;17.85;;
22468;SDS011;11401;50.792;4.352;2023-02-11T12:54:58;29.73;;;17.42;;
22468;SDS011;11401;50.792;4.352;2023-02-11T12:57:30;34.88;;;18.17;;
22468;SDS011;11401;50.792;4.352;2023-02-11T13:07:43;30.20;;;16.67;;
22468;SDS011;11401;50.792;4.352;2023-02-11T13:13:02;38.33;;;17.92;;
22468;SDS011;11401;50.792;4.352;2023-02-11T13:15:54;29.75;;;16.75;;
22468;SDS011;11401;50.792;4.352;2023-02-11T13:18:35;30.77;;;16.83;;
22468;SDS011;11401;50.792;4.352;2023-02-11T13:21:29;36.28;;;18.08;;
22468;SDS011;11401;50.792;4.352;2023-02-11T13:24:18;38.33;;;19.98;;
22468;SDS011;11401;50.792;4.352;2023-02-11T13:26:53;40.20;;;18.35;;
22468;SDS011;11401;50.792;4.352;2023-02-11T13:32:15;31.95;;;16.98;;
22468;SDS011;11401;50.792;4.352;2023-02-11T13:37:20;32.53;;;19.48;;
22468;SDS011;11401;50.792;4.352;2023-02-11T13:40:02;39.80;;;20.45;;
22468;SDS011;11401;50.792;4.352;2023-02-11T13:42:49;34.97;;;18.73;;
22468;SDS011;11401;50.792;4.352;2023-02-11T13:48:21;38.60;;;20.83;;
22468;SDS011;11401;50.792;4.352;2023-02-11T13:50:51;34.40;;;18.73;;
22468;SDS011;11401;50.792;4.352;2023-02-11T13:53:21;32.42;;;20.33;;
22468;SDS011;11401;50.792;4.352;2023-02-11T13:55:50;36.80;;;20.85;;
22468;SDS011;11401;50.792;4.352;2023-02-11T14:00:52;39.10;;;21.75;;
22468;SDS011;11401;50.792;4.352;2023-02-11T14:03:21;40.42;;;21.77;;
22468;SDS011;11401;50.792;4.352;2023-02-11T14:06:13;41.35;;;19.73;;
22468;SDS011;11401;50.792;4.352;2023-02-11T14:11:48;32.03;;;20.00;;
22468;SDS011;11401;50.792;4.352;2023-02-11T14:19:32;44.42;;;23.33;;
22468;SDS011;11401;50.792;4.352;2023-02-11T14:32:59;38.80;;;22.48;;
22468;SDS011;11401;50.792;4.352;2023-02-11T14:38:27;41.30;;;22.92;;
22468;SDS011;11401;50.792;4.352;2023-02-11T14:41:13;38.95;;;22.52;;
22468;SDS011;11401;50.792;4.352;2023-02-11T14:44:02;43.15;;;22.60;;
22468;SDS011;11401;50.792;4.352;2023-02-11T14:46:31;42.85;;;22.63;;
22468;SDS011;11401;50.792;4.352;2023-02-11T14:48:59;38.38;;;22.65;;
22468;SDS011;11401;50.792;4.352;2023-02-11T14:51:35;43.17;;;22.40;;
22468;SDS011;11401;50.792;4.352;2023-02-11T14:54:10;37.63;;;22.90;;
22468;SDS011;11401;50.792;4.352;2023-02-11T14:56:42;39.20;;;23.50;;
22468;SDS011;11401;50.792;4.352;2023-02-11T14:59:16;44.17;;;24.48;;
22468;SDS011;11401;50.792;4.352;2023-02-11T15:01:49;37.70;;;22.85;;
22468;SDS011;11401;50.792;4.352;2023-02-11T15:04:30;43.80;;;23.75;;
22468;SDS011;11401;50.792;4.352;2023-02-11T15:07:03;40.67;;;23.13;;
22468;SDS011;11401;50.792;4.352;2023-02-11T15:09:36;42.90;;;24.10;;
22468;SDS011;11401;50.792;4.352;2023-02-11T15:12:26;32.72;;;22.25;;
22468;SDS011;11401;50.792;4.352;2023-02-11T15:14:54;38.70;;;23.75;;
22468;SDS011;11401;50.792;4.352;2023-02-11T15:17:26;37.03;;;22.63;;
22468;SDS011;11401;50.792;4.352;2023-02-11T15:19:57;34.92;;;22.27;;
22468;SDS011;11401;50.792;4.352;2023-02-11T15:22:28;41.05;;;23.80;;
22468;SDS011;11401;50.792;4.352;2023-02-11T15:27:36;39.60;;;23.92;;
22468;SDS011;11401;50.792;4.352;2023-02-11T15:30:29;48.47;;;22.52;;
22468;SDS011;11401;50.792;4.352;2023-02-11T15:33:00;43.60;;;23.73;;
22468;SDS011;11401;50.792;4.352;2023-02-11T15:35:30;39.30;;;23.90;;
22468;SDS011;11401;50.792;4.352;2023-02-11T15:38:00;40.97;;;24.00;;
22468;SDS011;11401;50.792;4.352;2023-02-11T15:40:28;39.75;;;23.42;;
22468;SDS011;11401;50.792;4.352;2023-02-11T15:43:04;40.63;;;23.25;;
22468;SDS011;11401;50.792;4.352;2023-02-11T15:48:27;42.92;;;23.52;;
22468;SDS011;11401;50.792;4.352;2023-02-11T15:51:22;42.42;;;23.65;;
22468;SDS011;11401;50.792;4.352;2023-02-11T15:53:59;43.17;;;24.00;;
22468;SDS011;11401;50.792;4.352;2023-02-11T15:56:35;44.03;;;24.50;;
22468;SDS011;11401;50.792;4.352;2023-02-11T15:59:18;44.97;;;23.90;;
22468;SDS011;11401;50.792;4.352;2023-02-11T16:02:04;39.25;;;24.00;;
22468;SDS011;11401;50.792;4.352;2023-02-11T16:04:34;43.35;;;24.27;;
22468;SDS011;11401;50.792;4.352;2023-02-11T16:07:02;35.05;;;23.40;;
22468;SDS011;11401;50.792;4.352;2023-02-11T16:09:33;37.97;;;22.70;;
22468;SDS011;11401;50.792;4.352;2023-02-11T16:12:21;36.30;;;23.02;;
22468;SDS011;11401;50.792;4.352;2023-02-11T16:14:52;41.30;;;24.95;;
22468;SDS011;11401;50.792;4.352;2023-02-11T16:17:22;38.83;;;24.00;;
22468;SDS011;11401;50.792;4.352;2023-02-11T16:19:53;38.72;;;24.65;;
22468;SDS011;11401;50.792;4.352;2023-02-11T16:22:24;43.70;;;23.75;;
22468;SDS011;11401;50.792;4.352;2023-02-11T16:24:55;40.03;;;23.60;;
22468;SDS011;11401;50.792;4.352;2023-02-11T16:27:25;38.13;;;23.02;;
22468;SDS011;11401;50.792;4.352;2023-02-11T16:30:02;40.33;;;24.13;;
22468;SDS011;11401;50.792;4.352;2023-02-11T16:32:29;37.20;;;23.45;;
22468;SDS011;11401;50.792;4.352;2023-02-11T16:34:58;35.83;;;23.27;;
22468;SDS011;11401;50.792;4.352;2023-02-11T16:37:26;39.08;;;24.38;;
22468;SDS011;11401;50.792;4.352;2023-02-11T16:39:54;37.13;;;24.50;;
22468;SDS011;11401;50.792;4.352;2023-02-11T16:42:24;40.83;;;24.00;;
22468;SDS011;11401;50.792;4.352;2023-02-11T16:44:51;39.88;;;24.20;;
22468;SDS011;11401;50.792;4.352;2023-02-11T16:47:21;40.40;;;25.52;;
22468;SDS011;11401;50.792;4.352;2023-02-11T16:49:50;44.63;;;24.75;;
22468;SDS011;11401;50.792;4.352;2023-02-11T16:52:18;40.15;;;23.38;;
22468;SDS011;11401;50.792;4.352;2023-02-11T16:54:46;39.85;;;22.95;;
22468;SDS011;11401;50.792;4.352;2023-02-11T16:57:14;36.55;;;23.65;;
22468;SDS011;11401;50.792;4.352;2023-02-11T16:59:47;39.25;;;22.88;;
22468;SDS011;11401;50.792;4.352;2023-02-11T17:02:15;39.15;;;23.15;;
22468;SDS011;11401;50.792;4.352;2023-02-11T17:04:49;40.55;;;23.00;;
22468;SDS011;11401;50.792;4.352;2023-02-11T17:07:18;36.85;;;23.63;;
22468;SDS011;11401;50.792;4.352;2023-02-11T17:09:46;43.53;;;24.60;;
22468;SDS011;11401;50.792;4.352;2023-02-11T17:12:13;37.15;;;24.30;;
22468;SDS011;11401;50.792;4.352;2023-02-11T17:14:40;37.72;;;23.77;;
22468;SDS011;11401;50.792;4.352;2023-02-11T17:17:08;42.78;;;25.25;;
22468;SDS011;11401;50.792;4.352;2023-02-11T17:19:35;45.67;;;26.83;;
22468;SDS011;11401;50.792;4.352;2023-02-11T17:22:03;41.42;;;25.42;;
22468;SDS011;11401;50.792;4.352;2023-02-11T17:24:30;40.40;;;24.60;;
22468;SDS011;11401;50.792;4.352;2023-02-11T17:26:57;44.85;;;25.55;;
22468;SDS011;11401;50.792;4.352;2023-02-11T17:29:25;37.53;;;23.85;;
22468;SDS011;11401;50.792;4.352;2023-02-11T17:31:52;42.22;;;25.55;;
22468;SDS011;11401;50.792;4.352;2023-02-11T17:34:20;39.40;;;25.17;;
22468;SDS011;11401;50.792;4.352;2023-02-11T17:36:48;37.13;;;23.88;;
22468;SDS011;11401;50.792;4.352;2023-02-11T17:39:15;38.08;;;24.70;;
22468;SDS011;11401;50.792;4.352;2023-02-11T17:41:42;36.17;;;24.90;;
22468;SDS011;11401;50.792;4.352;2023-02-11T17:44:09;34.40;;;24.30;;
22468;SDS011;11401;50.792;4.352;2023-02-11T17:46:37;34.97;;;24.27;;